createdAt,value
2017-10-15T00:02:10.404Z,3.83
2017-10-15T00:04:37.859Z,4.40
2017-10-15T00:07:05.296Z,3.60
2017-10-15T00:09:32.734Z,3.33
2017-10-15T00:12:00.956Z,3.60
2017-10-15T00:14:28.401Z,3.93
2017-10-15T00:16:55.854Z,4.47
2017-10-15T00:19:23.283Z,4.33
2017-10-15T00:21:51.514Z,4.57
2017-10-15T00:24:18.946Z,3.60
2017-10-15T00:26:46.385Z,4.37
2017-10-15T00:29:13.827Z,4.17
2017-10-15T00:31:42.040Z,4.40
2017-10-15T00:34:09.479Z,3.90
2017-10-15T00:36:36.901Z,4.00
2017-10-15T00:39:05.155Z,4.37
2017-10-15T00:41:32.583Z,4.60
2017-10-15T00:44:00.051Z,5.40
2017-10-15T00:46:27.495Z,3.43
2017-10-15T00:48:54.927Z,3.83
2017-10-15T00:51:22.374Z,4.30
2017-10-15T00:53:50.580Z,4.90
2017-10-15T00:56:18.019Z,4.20
2017-10-15T00:58:45.451Z,4.00
2017-10-15T01:01:13.671Z,5.23
2017-10-15T01:03:41.115Z,4.83
2017-10-15T01:06:08.569Z,4.50
2017-10-15T01:08:36.009Z,4.10
2017-10-15T01:11:04.202Z,4.40
2017-10-15T01:13:31.643Z,3.97
2017-10-15T01:15:59.863Z,3.97
2017-10-15T01:18:27.306Z,3.70
2017-10-15T01:20:54.733Z,4.23
2017-10-15T01:23:22.938Z,4.00
2017-10-15T01:25:50.371Z,4.93
2017-10-15T01:28:17.847Z,4.70
2017-10-15T01:30:45.277Z,3.43
2017-10-15T01:33:13.484Z,4.50
2017-10-15T01:35:40.934Z,4.03
2017-10-15T01:38:08.363Z,4.40
2017-10-15T01:40:36.584Z,4.13
2017-10-15T01:43:04.032Z,4.00
2017-10-15T01:45:31.455Z,4.07
2017-10-15T01:47:58.900Z,5.13
2017-10-15T01:50:26.342Z,3.80
2017-10-15T01:52:53.775Z,4.60
2017-10-15T01:55:21.217Z,4.03
2017-10-15T01:57:48.672Z,3.90
2017-10-15T02:00:16.110Z,4.47
2017-10-15T02:02:43.564Z,3.80
2017-10-15T02:05:11.004Z,3.53
2017-10-15T02:07:39.220Z,4.33
2017-10-15T02:10:06.670Z,4.07
2017-10-15T02:12:34.139Z,4.37
2017-10-15T02:15:01.572Z,4.27
2017-10-15T02:17:29.008Z,3.80
2017-10-15T02:19:57.218Z,3.80
2017-10-15T02:22:24.654Z,4.23
2017-10-15T02:24:52.103Z,4.07
2017-10-15T02:27:20.312Z,4.30
2017-10-15T02:29:47.768Z,4.63
2017-10-15T02:32:15.224Z,3.53
2017-10-15T02:34:42.676Z,3.87
2017-10-15T02:37:10.119Z,4.30
2017-10-15T02:39:37.559Z,3.97
2017-10-15T02:42:05.776Z,4.13
2017-10-15T02:44:33.221Z,4.30
2017-10-15T02:47:00.679Z,4.57
2017-10-15T02:49:28.116Z,5.40
2017-10-15T02:51:55.546Z,4.30
2017-10-15T02:54:23.137Z,4.67
2017-10-15T02:56:50.579Z,4.23
2017-10-15T02:59:18.783Z,5.00
2017-10-15T03:01:46.226Z,4.80
2017-10-15T03:04:14.155Z,5.27
2017-10-15T03:06:41.583Z,5.87
2017-10-15T03:09:09.034Z,5.70
2017-10-15T03:11:36.466Z,6.10
2017-10-15T03:14:03.898Z,6.07
2017-10-15T03:16:32.110Z,5.30
2017-10-15T03:18:59.543Z,6.00
2017-10-15T03:21:27.764Z,5.87
2017-10-15T03:23:55.209Z,5.60
2017-10-15T03:26:22.679Z,6.00
2017-10-15T03:28:50.122Z,4.87
2017-10-15T03:31:17.568Z,5.47
2017-10-15T03:33:45.011Z,4.80
2017-10-15T03:36:12.451Z,4.70
2017-10-15T03:38:40.664Z,6.20
2017-10-15T03:41:08.090Z,5.90
2017-10-15T03:43:35.550Z,6.10
2017-10-15T03:46:02.985Z,5.20
2017-10-15T03:48:30.419Z,6.20
2017-10-15T03:50:57.859Z,6.37
2017-10-15T03:53:25.311Z,6.30
2017-10-15T03:55:52.760Z,6.37
2017-10-15T03:58:20.201Z,6.00
2017-10-15T04:00:47.657Z,5.60
2017-10-15T04:03:15.082Z,6.00
2017-10-15T04:05:43.293Z,5.23
2017-10-15T04:08:10.727Z,5.60
2017-10-15T04:10:38.935Z,5.50
2017-10-15T04:13:06.399Z,5.07
2017-10-15T04:15:33.860Z,6.20
2017-10-15T04:18:01.307Z,6.00
2017-10-15T04:20:28.734Z,6.40
2017-10-15T04:22:56.190Z,5.27
2017-10-15T04:25:23.623Z,4.87
2017-10-15T04:27:51.064Z,4.67
2017-10-15T04:30:18.776Z,5.63
2017-10-15T04:32:46.220Z,5.00
2017-10-15T04:35:14.425Z,4.93
2017-10-15T04:37:41.871Z,5.47
2017-10-15T04:40:09.318Z,4.43
2017-10-15T04:42:36.752Z,4.80
2017-10-15T04:45:04.203Z,5.10
2017-10-15T04:47:31.642Z,5.47
2017-10-15T04:49:59.089Z,6.53
2017-10-15T04:52:26.543Z,6.30
2017-10-15T04:54:53.993Z,5.60
2017-10-15T04:57:21.443Z,5.00
2017-10-15T04:59:48.887Z,5.40
2017-10-15T05:02:16.363Z,5.13
2017-10-15T05:04:43.796Z,5.10
2017-10-15T05:07:11.235Z,5.90
2017-10-15T05:09:39.452Z,5.60
2017-10-15T05:12:06.895Z,5.10
2017-10-15T05:14:34.331Z,5.07
2017-10-15T05:17:01.763Z,4.73
2017-10-15T05:19:29.996Z,5.70
2017-10-15T05:21:57.464Z,6.83
2017-10-15T05:24:24.901Z,6.00
2017-10-15T05:26:52.359Z,5.93
2017-10-15T05:29:19.810Z,5.20
2017-10-15T05:31:47.251Z,5.00
2017-10-15T05:34:14.692Z,4.97
2017-10-15T05:36:42.931Z,4.30
2017-10-15T05:39:10.384Z,4.87
2017-10-15T05:41:37.827Z,4.00
2017-10-15T05:44:05.283Z,4.80
2017-10-15T05:46:32.747Z,4.30
2017-10-15T05:49:00.174Z,5.30
2017-10-15T05:51:27.622Z,5.50
2017-10-15T05:53:55.831Z,4.40
2017-10-15T05:56:23.271Z,5.37
2017-10-15T05:58:50.742Z,4.60
2017-10-15T06:01:18.185Z,4.87
2017-10-15T06:03:45.619Z,5.03
2017-10-15T06:06:13.075Z,5.67
2017-10-15T06:08:40.521Z,6.07
2017-10-15T06:11:08.747Z,5.70
2017-10-15T06:13:36.192Z,5.30
2017-10-15T06:16:03.664Z,6.77
2017-10-15T06:18:31.107Z,6.40
2017-10-15T06:20:58.538Z,4.97
2017-10-15T06:23:25.991Z,4.27
2017-10-15T06:25:54.196Z,5.20
2017-10-15T06:28:22.169Z,5.07
2017-10-15T06:30:49.614Z,4.57
2017-10-15T06:33:17.078Z,5.93
2017-10-15T06:35:44.523Z,5.03
2017-10-15T06:38:11.959Z,4.57
2017-10-15T06:40:40.183Z,5.63
2017-10-15T06:43:07.623Z,3.90
2017-10-15T06:45:35.081Z,4.63
2017-10-15T06:48:02.542Z,4.77
2017-10-15T06:50:29.995Z,4.80
2017-10-15T06:52:57.459Z,5.70
2017-10-15T06:55:24.909Z,4.97
2017-10-15T06:57:52.355Z,5.17
2017-10-15T07:00:19.819Z,5.27
2017-10-15T07:02:47.260Z,6.27
2017-10-15T07:05:14.707Z,5.60
2017-10-15T07:07:42.920Z,5.43
2017-10-15T07:10:10.387Z,6.17
2017-10-15T07:12:37.836Z,5.40
2017-10-15T07:15:05.289Z,5.43
2017-10-15T07:17:32.751Z,5.80
2017-10-15T07:22:53.630Z,6.27
2017-10-15T07:25:21.067Z,5.63
2017-10-15T07:27:48.627Z,5.70
2017-10-15T07:30:16.075Z,5.60
2017-10-15T07:32:43.521Z,5.30
2017-10-15T07:35:11.031Z,5.57
2017-10-15T07:37:39.250Z,5.67
2017-10-15T07:40:06.780Z,5.20
2017-10-15T07:42:34.219Z,6.07
2017-10-15T07:45:01.741Z,5.07
2017-10-15T07:47:29.174Z,5.00
2017-10-15T07:49:56.614Z,5.50
2017-10-15T07:52:24.171Z,5.80
2017-10-15T07:54:51.603Z,5.33
2017-10-15T07:57:19.066Z,5.77
2017-10-15T07:59:46.586Z,5.50
2017-10-15T08:02:14.037Z,5.03
2017-10-15T08:04:41.461Z,4.60
2017-10-15T08:07:08.916Z,6.10
2017-10-15T08:09:36.346Z,7.23
2017-10-15T08:12:03.817Z,5.47
2017-10-15T08:14:31.260Z,5.63
2017-10-15T08:16:59.196Z,5.43
2017-10-15T08:19:27.439Z,5.20
2017-10-15T08:21:54.901Z,5.50
2017-10-15T08:24:22.342Z,5.67
2017-10-15T08:26:49.784Z,5.90
2017-10-15T08:29:17.241Z,6.03
2017-10-15T08:31:44.706Z,5.20
2017-10-15T08:34:12.161Z,6.40
2017-10-15T08:36:39.599Z,5.37
2017-10-15T08:39:07.036Z,5.70
2017-10-15T08:41:35.270Z,5.90
2017-10-15T08:44:02.706Z,6.60
2017-10-15T08:46:30.163Z,6.93
2017-10-15T08:48:57.615Z,5.87
2017-10-15T08:51:25.042Z,5.57
2017-10-15T08:53:53.252Z,6.83
2017-10-15T08:56:20.715Z,5.93
2017-10-15T08:58:48.165Z,6.10
2017-10-15T09:01:15.587Z,7.20
2017-10-15T09:03:43.807Z,6.70
2017-10-15T09:06:11.257Z,6.63
2017-10-15T09:08:38.698Z,5.43
2017-10-15T09:11:06.134Z,6.10
2017-10-15T09:13:34.391Z,6.17
2017-10-15T09:16:01.824Z,5.47
2017-10-15T09:18:29.266Z,5.20
2017-10-15T09:20:56.727Z,5.10
2017-10-15T09:23:24.166Z,6.03
2017-10-15T09:25:51.615Z,6.20
2017-10-15T09:28:19.053Z,5.43
2017-10-15T09:30:47.261Z,5.07
2017-10-15T09:33:14.698Z,4.30
2017-10-15T09:35:42.144Z,5.03
2017-10-15T09:38:10.350Z,4.70
2017-10-15T09:40:37.808Z,4.83
2017-10-15T09:43:05.239Z,4.00
2017-10-15T09:45:32.691Z,4.23
2017-10-15T09:48:00.908Z,3.77
2017-10-15T09:50:28.383Z,4.13
2017-10-15T09:52:55.832Z,4.23
2017-10-15T09:55:23.302Z,4.10
2017-10-15T09:57:50.739Z,4.60
2017-10-15T10:00:18.187Z,4.30
2017-10-15T10:02:45.634Z,3.47
2017-10-15T10:05:13.070Z,3.50
2017-10-15T10:07:40.519Z,3.40
2017-10-15T10:10:07.956Z,3.80
2017-10-15T10:12:35.415Z,3.70
2017-10-15T10:15:03.637Z,3.73
2017-10-15T10:17:31.096Z,4.60
2017-10-15T10:19:58.534Z,3.83
2017-10-15T10:22:25.969Z,3.73
2017-10-15T10:24:54.182Z,3.40
2017-10-15T10:27:21.619Z,3.03
2017-10-15T10:29:49.079Z,4.03
2017-10-15T10:32:16.510Z,3.90
2017-10-15T10:34:44.715Z,3.10
2017-10-15T10:37:12.170Z,4.10
2017-10-15T10:39:39.598Z,3.30
2017-10-15T10:42:07.816Z,4.50
2017-10-15T10:44:35.257Z,3.33
2017-10-15T10:47:02.693Z,3.73
2017-10-15T10:49:31.021Z,3.87
2017-10-15T10:51:58.464Z,3.57
2017-10-15T10:54:25.906Z,5.27
2017-10-15T10:56:53.338Z,9.80
2017-10-15T10:59:21.639Z,7.70
2017-10-15T11:01:49.083Z,7.97
2017-10-15T11:04:17.284Z,4.50
2017-10-15T11:06:44.744Z,5.13
2017-10-15T11:09:12.200Z,4.27
2017-10-15T11:11:39.656Z,3.80
2017-10-15T11:14:07.094Z,3.00
2017-10-15T11:16:34.552Z,3.60
2017-10-15T11:19:01.989Z,3.13
2017-10-15T11:21:30.224Z,3.63
2017-10-15T11:23:57.659Z,3.93
2017-10-15T11:26:25.099Z,3.47
2017-10-15T11:28:52.544Z,3.80
2017-10-15T11:31:20.760Z,3.60
2017-10-15T11:33:48.206Z,3.33
2017-10-15T11:36:15.643Z,3.40
2017-10-15T11:38:43.104Z,3.43
2017-10-15T11:41:10.540Z,3.20
2017-10-15T11:43:38.776Z,3.80
2017-10-15T11:46:06.211Z,3.60
2017-10-15T11:48:33.973Z,3.20
2017-10-15T11:51:01.425Z,4.50
2017-10-15T11:53:28.856Z,3.10
2017-10-15T11:55:57.076Z,4.03
2017-10-15T11:58:24.522Z,3.70
2017-10-15T12:00:51.975Z,3.33
2017-10-15T12:03:19.409Z,3.03
2017-10-15T12:05:46.874Z,3.03
2017-10-15T12:08:14.311Z,3.70
2017-10-15T12:10:41.752Z,3.00
2017-10-15T12:13:09.200Z,3.33
2017-10-15T12:15:36.634Z,3.47
2017-10-15T12:18:04.075Z,4.20
2017-10-15T12:20:31.525Z,2.80
2017-10-15T12:22:58.972Z,3.77
2017-10-15T12:25:26.406Z,3.30
2017-10-15T12:27:54.638Z,3.03
2017-10-15T12:30:22.077Z,3.80
2017-10-15T12:32:49.519Z,3.70
2017-10-15T12:35:16.977Z,3.37
2017-10-15T12:37:44.420Z,3.00
2017-10-15T12:40:11.888Z,3.70
2017-10-15T12:42:39.318Z,3.50
2017-10-15T12:45:07.540Z,4.93
2017-10-15T12:47:34.978Z,4.03
2017-10-15T12:50:02.465Z,4.17
2017-10-15T12:52:29.909Z,3.70
2017-10-15T12:54:57.368Z,4.10
2017-10-15T12:57:24.824Z,3.83
2017-10-15T12:59:52.271Z,4.13
2017-10-15T13:02:19.731Z,3.47
2017-10-15T13:04:47.156Z,4.93
2017-10-15T13:07:15.371Z,4.57
2017-10-15T13:09:42.823Z,4.13
2017-10-15T13:12:10.291Z,5.03
2017-10-15T13:14:37.735Z,3.77
2017-10-15T13:17:05.176Z,4.27
2017-10-15T13:19:32.631Z,4.00
2017-10-15T13:22:00.080Z,4.70
2017-10-15T13:24:28.296Z,3.97
2017-10-15T13:26:55.738Z,3.60
2017-10-15T13:29:23.206Z,4.10
2017-10-15T13:31:50.651Z,5.10
2017-10-15T13:34:18.091Z,4.30
2017-10-15T13:36:45.542Z,4.60
2017-10-15T13:39:12.974Z,4.70
2017-10-15T13:41:41.203Z,4.23
2017-10-15T13:44:08.650Z,4.50
2017-10-15T13:46:36.106Z,4.67
2017-10-15T13:49:03.544Z,4.80
2017-10-15T13:51:30.980Z,4.17
2017-10-15T13:53:59.200Z,4.20
2017-10-15T13:56:26.639Z,5.60
2017-10-15T13:58:54.089Z,4.80
2017-10-15T14:01:21.529Z,3.73
2017-10-15T14:03:49.753Z,5.53
2017-10-15T14:06:17.182Z,5.20
2017-10-15T14:08:44.625Z,4.20
2017-10-15T14:11:12.842Z,4.60
2017-10-15T14:13:40.292Z,4.83
2017-10-15T14:16:07.753Z,4.27
2017-10-15T14:18:35.187Z,4.53
2017-10-15T14:21:02.634Z,5.00
2017-10-15T14:23:30.836Z,4.50
2017-10-15T14:25:58.308Z,4.57
2017-10-15T14:28:25.746Z,4.87
2017-10-15T14:30:53.184Z,4.67
2017-10-15T14:33:20.640Z,3.80
2017-10-15T14:35:48.073Z,4.97
2017-10-15T14:38:15.518Z,5.60
2017-10-15T14:40:42.959Z,4.83
2017-10-15T14:43:10.429Z,4.27
2017-10-15T14:45:37.875Z,4.37
2017-10-15T14:48:05.315Z,4.33
2017-10-15T14:50:32.751Z,4.90
2017-10-15T14:53:00.188Z,3.57
2017-10-15T14:55:28.408Z,4.20
2017-10-15T14:57:56.618Z,4.63
2017-10-15T15:00:24.072Z,5.20
2017-10-15T15:02:51.504Z,4.50
2017-10-15T15:05:18.939Z,4.67
2017-10-15T15:07:46.396Z,4.43
2017-10-15T15:10:13.815Z,3.70
2017-10-15T15:12:42.050Z,4.20
2017-10-15T15:15:09.481Z,5.30
2017-10-15T15:17:36.947Z,4.70
2017-10-15T15:20:04.379Z,4.30
2017-10-15T15:22:31.848Z,4.80
2017-10-15T15:24:59.279Z,5.37
2017-10-15T15:27:27.488Z,4.60
2017-10-15T15:29:54.941Z,4.70
2017-10-15T15:32:22.367Z,6.37
2017-10-15T15:34:50.579Z,4.87
2017-10-15T15:37:18.035Z,4.53
2017-10-15T15:39:45.491Z,4.60
2017-10-15T15:42:12.934Z,4.70
2017-10-15T15:44:40.406Z,5.10
2017-10-15T15:47:07.838Z,6.80
2017-10-15T15:49:35.290Z,5.77
2017-10-15T15:52:03.509Z,5.20
2017-10-15T15:54:30.952Z,5.70
2017-10-15T15:56:58.408Z,6.93
2017-10-15T15:59:25.840Z,6.30
2017-10-15T16:01:53.294Z,5.63
2017-10-15T16:04:21.495Z,4.73
2017-10-15T16:06:48.936Z,5.40
2017-10-15T16:09:16.384Z,4.37
2017-10-15T16:11:44.590Z,7.20
2017-10-15T16:14:12.038Z,9.23
2017-10-15T16:16:39.484Z,10.33
2017-10-15T16:19:06.960Z,15.70
2017-10-15T16:21:34.415Z,15.87
2017-10-15T16:24:01.866Z,15.00
2017-10-15T16:26:29.327Z,13.27
2017-10-15T16:28:56.784Z,8.53
2017-10-15T16:31:24.259Z,8.40
2017-10-15T16:33:51.698Z,9.20
2017-10-15T16:36:19.156Z,9.70
2017-10-15T16:38:46.591Z,9.60
2017-10-15T16:41:14.035Z,9.20
2017-10-15T16:43:42.259Z,8.30
2017-10-15T16:46:09.719Z,7.70
2017-10-15T16:48:37.168Z,7.37
2017-10-15T16:51:04.616Z,7.73
2017-10-15T16:53:32.076Z,6.87
2017-10-15T16:55:59.507Z,6.50
2017-10-15T16:58:26.983Z,6.97
2017-10-15T17:00:54.424Z,7.10
